Startpagina
METAR-TAF:

METAR-TAF

Vliegvelden :

Aeroporto di Lugano

Lugano, Zwitserland

breedte: 46-00N, lengte: 008-58E, hoogte: 273 m

Actueel weer

Dit bericht is 32 minuten geleden gemaakt, om 04:20 UTC
Wind 2 kt uit variabele richting
Temperatuur 14°C
Vochtigheid 94%
Druk 1007 hPa
Zicht 10 km of meer
Weinig wolken op 4800 ft
Gebroken wolken op 7000 ft

METAR: LSZA 060420Z AUTO VRB02KT 9999 FEW048 BKN070 14/13 Q1007

Tijdstip: 06:52 (04:52 UTC)

Verwachting

Dit bericht is 2 uur en het 27 minuten geleden gemaakt, om 02:25 UTC
Verwachting geldig van 06 om 03 UTC tot 06 om 12 UTC
Wind 3 kt uit variabele richting
Zicht 10 km of meer
Weinig wolken op 4500 ft

TAF: LSZA 060225Z 0603/0612 VRB03KT 9999 FEW045

Waarnemingen en weersverwachtingen van meer dan 4000 vliegvelden (METAR en TAF).

De beschikbare stations zijn de gele en rode punten op de kaart.

Ga met uw muis naar het station om de naam te zien.

Klik dan om waarnemingen en weersverwachtingen te zien.

kaart wijzigen: klik op de groene knoppen met een zwart kruis om in te zoomen, op de groene knop met een streepje om uit te zoomen of op de groene pijlen voor aangrenzende kaarten.


METAR-TAF: